Time;durP1;ratioP1;P1;durP2;ratioP2;P2;SDS_P1;SDS_P2;PMS_P1;PMS_P2;Temp;Humidity;BMP_temperature;BMP_pressure;BME280_temperature;BME280_humidity;BME280_pressure;Samples;Min_cycle;Max_cycle;Signal;HPM_P1;HPM_P2
2022/10/22 00:02:40;;;;;;;587.17;549.90;;;15.00;99.90;;;15.23;100.00;100056.16;5071201;28;20198;-79
2022/10/22 00:05:28;;;;;;;580.17;544.53;;;15.00;99.90;;;15.10;100.00;100050.13;5091092;28;20208;-79
2022/10/22 00:08:16;;;;;;;587.28;552.45;;;15.00;99.90;;;15.12;100.00;100048.31;5090571;28;20225;-79
2022/10/22 00:11:14;;;;;;;584.17;550.15;;;15.00;99.90;;;15.08;100.00;100048.41;5056121;28;20240;-79
2022/10/22 00:14:03;;;;;;;577.67;544.33;;;14.80;99.90;;;14.96;100.00;100046.78;5071034;28;20198;-79
2022/10/22 00:16:52;;;;;;;573.55;540.22;;;;;;;15.02;100.00;100065.34;5072270;28;20209;-79
2022/10/22 00:19:40;;;;;;;574.03;540.97;;;14.80;99.90;;;15.01;100.00;100082.22;5076062;28;20241;-79
2022/10/22 00:22:28;;;;;;;578.08;544.85;;;14.90;99.90;;;14.92;100.00;100083.25;5094893;28;20201;-79
2022/10/22 00:25:17;;;;;;;561.90;530.25;;;14.80;99.90;;;14.88;100.00;100075.31;5079923;28;20209;-79
2022/10/22 00:28:05;;;;;;;563.75;532.78;;;14.70;99.90;;;14.84;100.00;100077.16;5079407;28;20217;-79
2022/10/22 00:30:58;;;;;;;568.75;536.72;;;14.70;99.90;;;14.80;100.00;100082.53;5094863;28;20303;-79
2022/10/22 00:33:47;;;;;;;567.13;534.47;;;14.60;99.90;;;14.77;100.00;100094.09;5094238;28;20193;-79
2022/10/22 00:36:35;;;;;;;567.03;534.85;;;;;;;14.92;100.00;100101.00;5095354;28;20662;-79
2022/10/22 00:39:26;;;;;;;578.80;545.08;;;14.80;99.90;;;14.96;100.00;100100.06;5074156;28;20614;-80
2022/10/22 00:42:20;;;;;;;574.45;540.50;;;14.80;99.90;;;14.91;100.00;100099.22;5059039;28;20194;-79
2022/10/22 00:45:11;;;;;;;573.45;539.33;;;14.70;99.90;;;14.81;100.00;100101.16;5074335;28;20205;-79
2022/10/22 00:48:25;;;;;;;559.90;526.97;;;14.70;99.90;;;14.85;100.00;100115.28;5073815;28;20210;-79
2022/10/22 00:51:14;;;;;;;563.58;531.15;;;14.70;99.90;;;14.81;100.00;100113.56;5064931;28;20228;-79
2022/10/22 00:54:06;;;;;;;564.22;531.15;;;14.60;99.90;;;14.74;100.00;100110.13;5079050;28;20198;-79
2022/10/22 00:56:54;;;;;;;573.53;539.47;;;14.50;99.90;;;14.61;100.00;100109.38;5079694;28;20208;-79
2022/10/22 00:59:42;;;;;;;573.30;540.10;;;;;;;14.59;100.00;100118.28;5093312;28;20292;-79
2022/10/22 01:02:31;;;;;;;561.75;528.80;;;14.40;99.90;;;14.56;100.00;100129.84;5065574;28;20202;-78
2022/10/22 01:05:19;;;;;;;572.70;539.13;;;14.40;99.90;;;14.52;100.00;100128.13;5078879;28;20197;-79
2022/10/22 01:08:22;;;;;;;562.20;528.83;;;14.30;99.90;;;14.51;100.00;100128.16;5094152;28;20601;-79
2022/10/22 01:12:02;;;;;;;569.00;534.65;;;14.40;99.90;;;14.50;100.00;100134.38;5079321;28;20232;-80
2022/10/22 01:15:17;;;;;;;559.15;524.97;;;14.40;99.90;;;14.50;100.00;100148.56;5066504;28;20201;-79
2022/10/22 01:18:36;;;;;;;552.30;517.88;;;14.40;99.90;;;14.48;100.00;100152.13;5064455;28;20236;-79
2022/10/22 01:21:43;;;;;;;556.03;522.20;;;14.40;99.90;;;14.46;100.00;100154.81;5079745;28;20224;-79
2022/10/22 01:25:07;;;;;;;556.20;520.53;;;14.30;99.90;;;14.42;100.00;100150.41;5079154;28;20641;-79
2022/10/22 01:29:06;;;;;;;554.72;519.95;;;14.30;99.90;;;14.36;100.00;100156.66;5091766;28;20228;-79
2022/10/22 01:32:02;;;;;;;540.38;506.50;;;14.30;99.90;;;14.37;100.00;100161.06;5078429;28;20229;-79
2022/10/22 01:34:58;;;;;;;552.63;518.25;;;14.30;99.90;;;14.36;100.00;100167.28;5078199;28;20224;-78
2022/10/22 01:37:55;;;;;;;543.35;510.65;;;14.20;99.90;;;14.35;100.00;100168.19;5077819;28;20197;-79
2022/10/22 01:40:44;;;;;;;562.28;527.45;;;;;;;14.39;100.00;100156.63;5078109;28;20197;-79
2022/10/22 01:43:32;;;;;;;557.15;522.92;;;14.20;99.90;;;14.36;100.00;100159.31;5076963;28;20689;-79
2022/10/22 01:46:23;;;;;;;546.70;513.22;;;14.30;99.90;;;14.34;100.00;100160.22;5072550;28;20198;-79
2022/10/22 01:49:23;;;;;;;544.55;513.03;;;14.30;99.90;;;14.29;100.00;100149.59;5071432;28;20213;-79
2022/10/22 01:52:42;;;;;;;544.13;512.17;;;14.10;99.90;;;14.24;100.00;100138.13;5057694;28;20222;-79
2022/10/22 01:55:54;;;;;;;575.65;534.30;;;14.20;99.90;;;14.21;100.00;100137.28;5070281;28;20198;-79
2022/10/22 01:59:36;;;;;;;535.92;504.77;;;14.00;99.90;;;14.16;100.00;100131.13;5057801;28;20609;-79
2022/10/22 02:02:48;;;;;;;527.40;496.40;;;14.00;99.90;;;14.15;100.00;100138.22;4991469;28;20205;-79
2022/10/22 02:05:48;;;;;;;534.58;501.98;;;14.10;99.90;;;14.19;100.00;100142.63;5076948;28;20224;-79
2022/10/22 02:08:37;;;;;;;540.33;507.27;;;;;;;14.18;100.00;100132.00;5092642;28;20224;-79
2022/10/22 02:11:26;;;;;;;549.72;516.00;;;;;;;14.21;100.00;100132.84;5078089;28;20228;-78
2022/10/22 02:14:16;;;;;;;547.80;515.20;;;14.10;99.90;;;14.23;100.00;100132.84;5078738;28;20204;-79
2022/10/22 02:17:13;;;;;;;542.33;509.25;;;14.10;99.90;;;14.24;100.00;100118.63;5063198;28;20212;-79
2022/10/22 02:20:10;;;;;;;534.60;503.70;;;14.10;99.90;;;14.19;100.00;100109.81;5078518;28;20208;-79
2022/10/22 02:22:59;;;;;;;532.10;500.52;;;14.00;99.90;;;14.19;100.00;100102.72;5077818;28;20209;-79
2022/10/22 02:25:54;;;;;;;537.30;506.45;;;14.10;99.90;;;14.19;100.00;100100.06;5092810;28;20316;-79
2022/10/22 02:29:07;;;;;;;529.50;499.77;;;14.10;99.90;;;14.15;100.00;100105.44;5077493;28;20236;-79
2022/10/22 02:31:57;;;;;;;512.40;483.00;;;14.00;99.90;;;14.14;100.00;100101.03;5076910;28;20235;-79
2022/10/22 02:34:48;;;;;;;531.42;501.42;;;14.10;99.90;;;14.17;100.00;100085.03;5077692;28;20201;-79
2022/10/22 02:37:37;;;;;;;528.40;497.42;;;14.00;99.90;;;14.20;100.00;100066.38;5076483;28;20212;-79
2022/10/22 02:40:26;;;;;;;526.05;496.88;;;14.10;99.90;;;14.20;100.00;100051.31;5077736;28;20212;-79
2022/10/22 02:43:14;;;;;;;527.28;498.05;;;14.10;99.90;;;14.24;100.00;100045.06;5077353;28;20201;-79
2022/10/22 02:46:03;;;;;;;519.78;492.00;;;14.20;99.90;;;14.32;100.00;100034.34;5083441;28;20197;-79
2022/10/22 02:48:51;;;;;;;520.40;492.27;;;14.20;99.90;;;14.30;100.00;100034.38;5090907;28;20217;-78
2022/10/22 02:51:39;;;;;;;511.75;483.80;;;14.30;99.90;;;14.48;100.00;100040.38;5091867;28;20217;-79
2022/10/22 02:54:27;;;;;;;518.78;490.10;;;14.30;99.90;;;14.48;100.00;100046.59;5092010;28;20203;-79
2022/10/22 02:57:15;;;;;;;519.58;490.58;;;14.30;99.90;;;14.37;100.00;100038.72;5092540;28;20197;-79
2022/10/22 03:00:06;;;;;;;516.60;488.15;;;14.20;99.90;;;14.25;100.00;100030.84;5092343;28;20216;-79
2022/10/22 03:02:54;;;;;;;515.75;487.90;;;14.10;99.90;;;14.19;100.00;100022.94;5091546;28;20197;-81
2022/10/22 03:05:42;;;;;;;517.15;489.35;;;14.00;99.90;;;14.14;100.00;100034.53;5093360;28;20193;-81
2022/10/22 03:08:30;;;;;;;531.20;502.63;;;14.00;99.90;;;14.14;100.00;100034.53;5086930;28;20217;-80
2022/10/22 03:11:19;;;;;;;516.03;487.17;;;14.00;99.90;;;14.25;100.00;100038.81;5077322;28;20228;-81
2022/10/22 03:14:07;;;;;;;526.83;497.27;;;14.20;99.90;;;14.35;100.00;100031.66;5058878;28;20213;-81
2022/10/22 03:16:56;;;;;;;534.92;504.40;;;14.30;99.90;;;14.53;100.00;100027.91;5093145;28;20223;-81
2022/10/22 03:19:44;;;;;;;548.55;517.70;;;14.40;99.90;;;14.52;100.00;100045.66;5092180;28;20232;-81
2022/10/22 03:22:33;;;;;;;529.63;498.58;;;14.30;99.90;;;14.40;100.00;100051.97;5091811;28;20202;-81
2022/10/22 03:25:24;;;;;;;544.00;512.80;;;14.30;99.90;;;14.25;100.00;100052.13;5076677;28;20201;-79
2022/10/22 03:28:17;;;;;;;543.63;511.40;;;14.00;99.90;;;14.18;100.00;100085.00;5077691;28;20248;-79
2022/10/22 03:31:05;;;;;;;540.20;509.05;;;14.10;99.90;;;14.17;100.00;100090.34;5078392;28;20213;-79
2022/10/22 03:33:54;;;;;;;528.22;497.77;;;14.00;99.90;;;14.08;100.00;100092.22;5077270;28;20197;-81
2022/10/22 03:36:43;;;;;;;528.10;497.35;;;13.90;99.90;;;13.92;100.00;100085.28;5091173;28;20208;-81
2022/10/22 03:39:33;;;;;;;532.15;500.48;;;13.70;99.90;;;13.82;100.00;100099.56;5092020;28;20224;-80
2022/10/22 03:42:22;;;;;;;540.80;508.02;;;13.50;99.90;;;13.67;100.00;100107.69;5088583;28;20201;-80
2022/10/22 03:45:10;;;;;;;525.83;492.33;;;13.40;99.90;;;13.61;100.00;100111.28;5076278;28;20205;-80
2022/10/22 03:47:59;;;;;;;548.50;514.08;;;13.30;99.90;;;13.27;100.00;100101.81;5076981;28;20299;-80
2022/10/22 03:50:48;;;;;;;542.08;507.58;;;;;;;13.29;100.00;100126.59;5076628;28;20208;-80
2022/10/22 03:53:36;;;;;;;534.42;500.75;;;;;;;13.30;100.00;100153.13;5094297;28;20216;-80
2022/10/22 03:56:24;;;;;;;531.33;497.67;;;13.10;99.90;;;13.20;100.00;100150.53;5094561;28;20198;-80
2022/10/22 03:59:13;;;;;;;524.67;490.30;;;;;;;13.13;100.00;100147.88;5081464;28;20232;-80
2022/10/22 04:02:02;;;;;;;527.63;492.30;;;13.10;99.90;;;13.33;100.00;100162.84;5095861;28;20255;-80
2022/10/22 04:04:50;;;;;;;528.28;492.95;;;;;;;13.55;100.00;100159.16;5096427;28;20204;-80
2022/10/22 04:07:39;;;;;;;521.33;484.73;;;;;;;13.66;100.00;100162.59;5096070;28;20193;-80
2022/10/22 04:10:28;;;;;;;514.17;479.80;;;;;;;13.58;100.00;100144.97;5094587;28;20594;-79
2022/10/22 04:13:16;;;;;;;520.78;487.67;;;13.50;99.90;;;13.60;100.00;100145.81;5094464;28;20229;-80
2022/10/22 04:16:17;;;;;;;504.35;473.63;;;13.30;99.90;;;13.49;100.00;100147.69;5078633;28;20255;-79
2022/10/22 04:19:05;;;;;;;482.05;452.73;;;13.30;99.90;;;13.44;100.00;100166.31;5092799;28;20235;-79
2022/10/22 04:21:53;;;;;;;496.33;466.13;;;13.30;99.90;;;13.50;100.00;100181.31;5092901;28;20200;-81
2022/10/22 04:24:42;;;;;;;496.75;466.95;;;13.20;99.90;;;13.29;100.00;100180.56;5080972;28;20201;-80
2022/10/22 04:27:32;;;;;;;503.55;472.45;;;13.10;99.90;;;13.20;100.00;100185.94;5093249;28;20201;-80
2022/10/22 04:30:20;;;;;;;475.77;448.35;;;13.10;99.90;;;13.12;100.00;100188.59;5079660;28;20198;-80
2022/10/22 04:33:08;;;;;;;478.65;451.05;;;13.00;99.90;;;13.12;100.00;100201.88;5078114;28;20596;-80
2022/10/22 04:35:56;;;;;;;465.02;437.38;;;13.00;99.90;;;13.11;100.00;100220.47;5094076;28;20524;-80
2022/10/22 04:38:46;;;;;;;468.27;440.65;;;13.00;99.90;;;13.14;100.00;100239.03;5093000;28;20217;-80
2022/10/22 04:41:38;;;;;;;461.60;434.38;;;13.00;99.90;;;13.09;100.00;100247.03;5079431;28;20198;-80
2022/10/22 04:44:26;;;;;;;466.42;438.83;;;13.00;99.90;;;13.06;100.00;100255.00;5093392;28;20208;-79
2022/10/22 04:47:14;;;;;;;456.10;428.95;;;12.90;99.90;;;13.03;100.00;100257.66;5092661;28;20202;-79
2022/10/22 04:50:03;;;;;;;455.77;428.73;;;12.90;99.90;;;12.99;100.00;100257.66;5078774;28;20197;-80
2022/10/22 04:52:51;;;;;;;448.30;422.58;;;12.90;99.90;;;12.93;100.00;100261.22;5093891;28;20589;-80
2022/10/22 04:55:39;;;;;;;449.50;423.52;;;12.80;99.90;;;12.83;100.00;100256.81;5078512;28;20189;-80
2022/10/22 04:58:27;;;;;;;460.52;433.42;;;12.70;99.90;;;12.85;100.00;100267.44;5073886;28;20217;-80
2022/10/22 05:01:20;;;;;;;450.45;424.08;;;12.70;99.90;;;12.85;100.00;100272.75;5075929;28;20193;-79
2022/10/22 05:04:12;;;;;;;458.05;430.33;;;12.80;99.90;;;12.79;100.00;100271.00;5091910;28;20193;-80
2022/10/22 05:07:00;;;;;;;457.08;430.25;;;12.70;99.90;;;12.75;100.00;100280.72;5064936;28;20193;-81
2022/10/22 05:09:49;;;;;;;452.42;425.02;;;12.70;99.90;;;12.83;100.00;100293.97;5094502;28;20562;-80
2022/10/22 05:12:37;;;;;;;451.15;424.10;;;12.70;99.90;;;12.82;100.00;100294.88;5093544;28;20225;-79
2022/10/22 05:15:25;;;;;;;451.48;423.98;;;12.70;99.90;;;12.79;100.00;100289.56;5093697;28;20197;-80
2022/10/22 05:18:13;;;;;;;456.27;428.13;;;12.70;99.90;;;12.86;100.00;100290.44;5092505;28;20239;-80
2022/10/22 05:21:13;;;;;;;457.65;429.63;;;14.00;99.90;;;12.89;100.00;100288.66;5079232;28;20204;-80
2022/10/22 05:24:02;;;;;;;453.38;425.17;;;12.70;99.90;;;12.81;100.00;100280.72;5092073;28;20194;-80
2022/10/22 05:26:53;;;;;;;456.38;427.45;;;12.70;99.90;;;12.81;100.00;100269.22;5092796;28;20197;-80
2022/10/22 05:29:41;;;;;;;439.85;412.15;;;12.70;99.90;;;12.93;100.00;100287.75;5077466;28;20228;-80
2022/10/22 05:32:29;;;;;;;448.17;420.45;;;12.80;99.90;;;13.02;100.00;100282.44;5092075;28;20231;-80
2022/10/22 05:35:18;;;;;;;439.30;412.02;;;12.90;99.90;;;12.92;100.00;100272.72;5092182;28;20194;-80
2022/10/22 05:38:06;;;;;;;446.58;418.98;;;12.80;99.90;;;12.98;100.00;100271.81;5092182;28;20240;-80
2022/10/22 05:41:11;;;;;;;444.33;416.80;;;12.80;99.90;;;13.03;100.00;100270.06;5092948;28;20205;-80
2022/10/22 05:44:00;;;;;;;445.17;417.75;;;12.90;99.90;;;12.92;100.00;100262.09;5092614;28;20201;-79
2022/10/22 05:46:48;;;;;;;430.02;403.52;;;12.80;99.90;;;12.92;100.00;100262.09;5092246;28;20209;-80
2022/10/22 05:49:36;;;;;;;436.33;410.90;;;12.80;99.90;;;12.78;100.00;100255.94;5092516;28;20217;-80
2022/10/22 05:52:24;;;;;;;428.35;403.15;;;12.70;99.90;;;12.81;100.00;100267.44;5093514;28;20232;-80
2022/10/22 05:55:13;;;;;;;423.45;397.90;;;12.70;99.90;;;12.75;100.00;100264.81;5092143;28;20190;-80
2022/10/22 05:58:02;;;;;;;426.42;400.88;;;12.60;99.90;;;12.71;100.00;100267.47;5091669;28;20605;-80
2022/10/22 06:00:50;;;;;;;433.80;407.85;;;12.60;99.90;;;12.73;100.00;100268.34;5092445;28;20197;-80
2022/10/22 06:03:39;;;;;;;442.33;415.98;;;12.60;99.90;;;12.73;100.00;100278.97;5092492;28;20205;-80
2022/10/22 06:06:42;;;;;;;421.83;396.90;;;12.50;99.90;;;12.59;100.00;100265.72;5092146;28;20314;-80
2022/10/22 06:09:35;;;;;;;419.00;393.50;;;12.50;99.90;;;12.57;100.00;100266.63;5091251;28;20225;-80
2022/10/22 06:12:24;;;;;;;431.08;405.23;;;12.40;99.90;;;12.49;100.00;100272.81;5091352;28;20642;-80
2022/10/22 06:15:16;;;;;;;429.17;403.70;;;12.40;99.90;;;12.49;100.00;100285.19;5071723;28;20194;-80
2022/10/22 06:18:04;;;;;;;430.48;404.15;;;12.30;99.90;;;12.37;100.00;100277.25;5071562;28;20222;-80
2022/10/22 06:20:53;;;;;;;425.50;399.60;;;;;;;12.32;100.00;100293.16;5091997;28;20197;-80
2022/10/22 06:23:42;;;;;;;426.15;399.60;;;12.20;99.90;;;12.33;100.00;100286.97;5091305;28;20204;-79
2022/10/22 06:26:30;;;;;;;421.52;395.67;;;12.20;99.90;;;12.47;100.00;100308.19;5091480;28;20204;-79
2022/10/22 06:29:19;;;;;;;421.23;395.45;;;12.30;99.90;;;12.48;100.00;100310.84;5077279;28;20228;-79
2022/10/22 06:32:07;;;;;;;422.50;395.52;;;12.30;99.90;;;12.58;100.00;100318.78;5091126;28;20598;-80
2022/10/22 06:34:55;;;;;;;425.42;398.38;;;12.40;99.90;;;12.64;100.00;100327.63;5090996;28;20205;-80
2022/10/22 06:37:46;;;;;;;425.45;398.50;;;12.60;99.90;;;12.71;100.00;100331.16;5090812;28;20213;-80
2022/10/22 06:40:34;;;;;;;423.67;397.25;;;12.50;99.90;;;12.75;100.00;100331.13;5091302;28;20201;-80
2022/10/22 06:43:22;;;;;;;427.75;400.50;;;12.60;99.90;;;12.87;100.00;100346.16;5090979;28;20208;-80
2022/10/22 06:46:12;;;;;;;425.38;398.23;;;12.70;99.90;;;12.79;100.00;100339.97;5091372;28;20201;-80
2022/10/22 06:49:06;;;;;;;427.50;399.58;;;12.70;99.90;;;12.80;100.00;100342.63;5089662;28;20217;-80
2022/10/22 06:51:55;;;;;;;422.17;394.55;;;12.70;99.90;;;12.74;100.00;100347.94;5092178;28;20209;-80
2022/10/22 06:54:43;;;;;;;431.80;403.80;;;12.60;99.90;;;12.83;100.00;100360.31;5091874;28;20201;-80
2022/10/22 06:57:31;;;;;;;437.50;407.70;;;12.60;99.90;;;12.83;100.00;100365.63;5090788;28;20201;-80
2022/10/22 07:00:20;;;;;;;421.77;395.58;;;12.60;99.90;;;12.86;100.00;100378.91;5090732;28;20665;-80
2022/10/22 07:03:12;;;;;;;430.10;402.55;;;12.70;99.90;;;12.94;100.00;100385.06;5091721;28;20205;-80
2022/10/22 07:06:07;;;;;;;425.73;397.30;;;12.80;99.90;;;12.94;100.00;100393.03;5091708;28;20197;-81
2022/10/22 07:08:58;;;;;;;437.98;408.10;;;12.80;99.90;;;12.92;100.00;100397.47;5089256;28;20217;-80
2022/10/22 07:11:46;;;;;;;438.27;408.35;;;12.80;99.90;;;12.92;100.00;100410.75;5076519;28;20201;-81
2022/10/22 07:14:34;;;;;;;442.20;411.83;;;12.80;99.90;;;12.86;100.00;100420.47;5070552;28;20670;-80
2022/10/22 07:17:23;;;;;;;455.42;422.65;;;12.70;99.90;;;12.87;100.00;100430.22;5055979;28;20197;-80
2022/10/22 07:20:11;;;;;;;444.98;412.77;;;12.70;99.90;;;12.92;100.00;100444.34;5077016;28;20212;-80
2022/10/22 07:22:59;;;;;;;450.20;416.83;;;12.70;99.90;;;12.82;100.00;100448.78;5090690;28;20212;-80
2022/10/22 07:25:47;;;;;;;451.92;418.60;;;12.70;99.90;;;12.89;100.00;100455.84;5076606;28;20205;-80
2022/10/22 07:28:38;;;;;;;447.90;413.65;;;12.80;99.90;;;12.85;100.00;100461.16;5093165;28;20221;-80
2022/10/22 07:31:27;;;;;;;457.27;421.02;;;12.70;99.90;;;12.91;100.00;100474.44;5095357;28;20217;-79
2022/10/22 07:34:15;;;;;;;454.92;420.58;;;12.70;99.90;;;12.93;100.00;100476.22;5094172;28;20217;-80
2022/10/22 07:37:04;;;;;;;461.25;425.00;;;12.80;99.90;;;12.97;100.00;100487.72;5095423;28;20196;-80
2022/10/22 07:39:52;;;;;;;459.60;424.50;;;12.90;99.90;;;12.99;100.00;100481.53;5093635;28;20232;-80
2022/10/22 07:42:40;;;;;;;462.30;427.83;;;12.80;99.90;;;12.99;100.00;100492.13;5094036;28;20224;-80
2022/10/22 07:45:28;;;;;;;465.88;430.50;;;12.70;99.90;;;12.99;100.00;100496.56;5094957;28;20216;-80
2022/10/22 07:48:17;;;;;;;458.42;423.60;;;12.80;99.90;;;12.97;100.00;100490.38;5094152;28;20689;-80
2022/10/22 07:51:05;;;;;;;462.58;428.45;;;12.90;99.90;;;12.98;100.00;100495.69;5079294;28;20718;-81
2022/10/22 07:53:53;;;;;;;460.15;428.20;;;;;;;12.96;100.00;100497.44;5093792;28;20891;-80
2022/10/22 07:56:42;;;;;;;457.55;425.67;;;12.80;99.90;;;12.96;100.00;100504.53;5095528;28;20197;-81
2022/10/22 07:59:30;;;;;;;458.55;425.23;;;;;;;13.04;100.00;100505.44;5073248;28;20229;-80
2022/10/22 08:02:18;;;;;;;465.88;431.73;;;12.80;99.90;;;12.98;100.00;100511.59;5074187;28;20201;-80
2022/10/22 08:05:07;;;;;;;463.27;429.90;;;13.00;99.90;;;13.03;100.00;100514.28;5085892;28;20208;-80
2022/10/22 08:07:56;;;;;;;459.70;426.98;;;;;;;13.10;100.00;100526.69;5078884;28;20228;-80
2022/10/22 08:10:46;;;;;;;463.15;430.67;;;12.90;99.90;;;13.29;100.00;100546.19;5094609;28;20220;-80
2022/10/22 08:13:34;;;;;;;470.08;437.15;;;13.10;99.90;;;13.31;100.00;100541.75;5094495;28;20221;-80
2022/10/22 08:16:22;;;;;;;457.77;425.40;;;13.30;99.90;;;13.36;100.00;100543.53;5079371;28;20205;-80
2022/10/22 08:19:12;;;;;;;465.10;433.08;;;13.20;99.90;;;13.50;100.00;100547.94;5093578;28;20229;-80
2022/10/22 08:22:01;;;;;;;463.42;431.13;;;13.40;99.90;;;13.66;100.00;100563.88;5094127;28;20205;-80
2022/10/22 08:24:49;;;;;;;468.13;436.48;;;13.40;99.90;;;13.76;100.00;100562.09;5094212;28;20193;-80
2022/10/22 08:27:37;;;;;;;463.25;432.70;;;13.70;99.90;;;13.78;100.00;100547.91;5093142;28;20189;-81
2022/10/22 08:30:28;;;;;;;465.95;438.33;;;13.70;99.90;;;13.83;100.00;100550.53;5093791;28;20193;-81
2022/10/22 08:33:16;;;;;;;474.75;445.27;;;13.60;99.90;;;13.90;100.00;100548.75;5093006;28;20208;-80
2022/10/22 08:36:05;;;;;;;484.52;453.85;;;13.80;99.90;;;13.97;100.00;100548.72;5094962;28;20201;-80
2022/10/22 08:38:54;;;;;;;486.88;455.70;;;;;;;13.98;100.00;100558.47;5093139;28;20231;-80
2022/10/22 08:42:16;;;;;;;481.45;450.50;;;13.90;99.90;;;14.08;100.00;100546.03;5094555;28;20197;-81
2022/10/22 08:45:24;;;;;;;482.08;450.75;;;14.20;99.90;;;14.38;100.00;100567.22;5079535;28;20202;-80
2022/10/22 08:48:39;;;;;;;486.25;454.67;;;14.20;99.90;;;14.54;100.00;100575.19;5078102;28;20236;-79
2022/10/22 08:51:34;;;;;;;487.92;456.05;;;14.30;99.90;;;14.57;100.00;100562.75;5093636;28;20205;-80
2022/10/22 08:54:35;;;;;;;495.60;464.00;;;14.40;99.90;;;14.68;100.00;100565.34;5079554;28;20231;-81
2022/10/22 08:57:38;;;;;;;508.40;475.98;;;14.50;99.90;;;14.91;100.00;100571.41;5079080;28;20200;-81
2022/10/22 09:00:45;;;;;;;500.58;469.98;;;14.70;99.90;;;15.15;100.00;100570.34;5078084;28;20196;-80
2022/10/22 09:03:51;;;;;;;512.85;481.13;;;15.00;99.90;;;15.17;100.00;100565.00;5058557;28;20218;-80
2022/10/22 09:06:43;;;;;;;517.17;485.02;;;15.00;99.90;;;15.41;100.00;100572.81;5074367;28;20205;-79
2022/10/22 09:09:38;;;;;;;527.05;494.88;;;15.20;99.90;;;15.43;100.00;100562.13;5073297;28;20241;-80
2022/10/22 09:12:27;;;;;;;532.83;500.55;;;15.40;99.90;;;15.58;100.00;100562.03;5062670;28;20208;-80
2022/10/22 09:15:17;;;;;;;544.78;512.25;;;15.60;99.90;;;15.83;100.00;100573.38;5092976;28;20221;-80
2022/10/22 09:18:25;;;;;;;522.40;492.67;;;15.60;99.90;;;15.74;100.00;100555.69;5077912;28;20217;-81
2022/10/22 09:21:53;;;;;;;560.72;521.90;;;15.60;99.90;;;15.89;100.00;100566.19;5079327;28;20531;-80
2022/10/22 09:24:47;;;;;;;562.80;525.05;;;15.60;99.90;;;16.09;100.00;100567.75;5093669;28;20228;-79
2022/10/22 09:27:35;;;;;;;573.60;536.85;;;15.90;99.90;;;16.14;100.00;100572.13;5092619;28;20201;-80
2022/10/22 09:30:30;;;;;;;551.47;520.97;;;15.90;99.90;;;16.23;100.00;100577.38;5093779;28;20537;-80
2022/10/22 09:33:29;;;;;;;583.55;550.25;;;16.00;99.90;;;16.27;100.00;100571.09;5077959;28;20205;-80
2022/10/22 09:36:21;;;;;;;595.45;560.10;;;16.10;99.90;;;16.33;100.00;100573.69;5092748;28;20206;-79
2022/10/22 09:39:26;;;;;;;588.75;555.08;;;16.10;99.90;;;16.41;100.00;100565.56;5077842;28;20209;-80
2022/10/22 09:42:17;;;;;;;604.00;569.10;;;16.20;99.90;;;16.55;100.00;100581.41;5092458;28;20205;-80
2022/10/22 09:45:06;;;;;;;619.63;583.28;;;16.30;99.90;;;16.73;100.00;100583.00;5078445;28;20685;-79
2022/10/22 09:48:13;;;;;;;620.60;584.95;;;16.50;99.90;;;16.73;100.00;100564.28;5077303;28;20217;-80
2022/10/22 09:51:23;;;;;;;625.97;589.95;;;16.50;99.90;;;16.92;100.00;100574.72;5092219;28;20201;-80
2022/10/22 09:54:40;;;;;;;622.92;587.08;;;16.70;99.90;;;17.04;100.00;100581.69;5081007;28;20209;-80
2022/10/22 09:57:28;;;;;;;623.38;586.60;;;16.80;99.90;;;17.01;100.00;100578.16;5078024;28;20200;-79
2022/10/22 10:00:19;;;;;;;637.17;601.58;;;16.80;99.90;;;17.14;100.00;100585.09;5092886;28;20201;-80
2022/10/22 10:03:18;;;;;;;648.03;611.33;;;16.90;99.90;;;17.24;100.00;100576.91;5078004;28;20193;-80
2022/10/22 10:06:07;;;;;;;643.47;608.40;;;17.00;99.90;;;17.28;100.00;100561.69;5092388;28;20267;-80
2022/10/22 10:08:56;;;;;;;647.97;612.35;;;17.10;99.90;;;17.39;100.00;100580.22;5091653;28;20225;-79
2022/10/22 10:12:12;;;;;;;657.40;621.80;;;17.10;99.90;;;17.59;100.00;100586.13;5092879;28;20209;-80
2022/10/22 10:15:07;;;;;;;652.80;617.47;;;17.30;99.90;;;17.59;100.00;100565.63;5087151;28;20221;-80
2022/10/22 10:17:58;;;;;;;659.80;624.63;;;17.30;99.90;;;17.86;100.00;100587.47;5062897;28;20224;-80
2022/10/22 10:21:01;;;;;;;671.22;635.30;;;17.50;99.90;;;17.88;100.00;100583.84;5071476;28;20198;-79
2022/10/22 10:24:13;;;;;;;669.80;633.35;;;17.60;99.90;;;17.87;100.00;100566.03;5072361;28;20205;-80
2022/10/22 10:27:12;;;;;;;663.15;627.80;;;17.60;99.90;;;17.93;100.00;100570.38;5087421;28;20205;-80
2022/10/22 10:30:18;;;;;;;672.28;636.55;;;17.80;99.90;;;18.13;100.00;100576.22;5086146;28;20210;-79
2022/10/22 10:33:29;;;;;;;674.92;639.55;;;17.90;99.90;;;18.21;100.00;100576.13;5076970;28;20212;-79
2022/10/22 10:36:47;;;;;;;682.67;645.75;;;17.90;99.90;;;18.31;100.00;100572.34;5091202;28;20241;-79
2022/10/22 10:39:54;;;;;;;696.47;659.00;;;18.00;99.90;;;18.31;100.00;100553.59;5091317;28;20221;-79
2022/10/22 10:42:50;;;;;;;694.40;657.20;;;18.00;99.90;;;18.48;100.00;100555.91;5076531;28;20204;-79
2022/10/22 10:46:07;;;;;;;694.95;658.58;;;18.20;99.90;;;18.73;100.00;100575.06;5070065;28;20193;-80
2022/10/22 10:49:07;;;;;;;704.97;667.97;;;18.50;99.90;;;18.67;100.00;100543.91;5089920;28;20232;-80
2022/10/22 10:52:07;;;;;;;718.55;681.33;;;18.40;99.90;;;18.77;100.00;100533.88;5073531;28;20691;-79
2022/10/22 10:55:12;;;;;;;726.38;687.58;;;18.50;99.90;;;19.05;100.00;100556.44;5089815;28;20228;-79
2022/10/22 10:59:00;;;;;;;729.72;691.13;;;18.70;99.90;;;19.02;100.00;100536.88;5080445;28;20691;-79
2022/10/22 11:02:23;;;;;;;733.63;694.55;;;18.70;99.90;;;19.31;100.00;100561.16;5089612;28;20212;-80
2022/10/22 11:05:26;;;;;;;732.00;693.65;;;18.90;99.90;;;18.86;100.00;100482.75;5065434;28;20204;-79
2022/10/22 11:08:30;;;;;;;728.97;691.17;;;18.80;99.90;;;19.19;100.00;100535.53;5073870;28;20212;-79
2022/10/22 11:11:44;;;;;;;724.30;688.00;;;18.80;99.90;;;19.71;100.00;100581.69;5074668;28;20192;-79
2022/10/22 11:14:48;;;;;;;764.72;725.13;;;19.50;99.90;;;20.06;100.00;100535.09;5087950;28;20212;-80
2022/10/22 11:17:45;;;;;;;736.88;698.63;;;19.80;99.90;;;20.26;100.00;100539.88;5088386;28;20200;-79
2022/10/22 11:21:02;;;;;;;758.45;720.15;;;19.90;99.90;;;21.01;100.00;100584.25;5074194;28;20224;-79
2022/10/22 11:24:17;;;;;;;804.83;762.38;;;20.60;99.90;;;21.00;100.00;100513.44;5076766;28;20251;-80
2022/10/22 11:27:27;;;;;;;799.70;756.40;;;20.80;99.90;;;21.24;100.00;100514.50;5067167;28;20209;-83
2022/10/22 11:30:25;;;;;;;771.65;731.83;;;20.90;99.90;;;21.31;100.00;100477.50;5069808;28;20204;-82
2022/10/22 11:33:23;;;;;;;816.88;772.58;;;20.70;99.90;;;20.67;100.00;100417.75;5070254;28;20210;-82
2022/10/22 11:36:12;;;;;;;808.28;765.00;;;20.40;99.90;;;20.47;100.00;100417.53;5066093;28;20236;-81